createdAt,value
2017-12-16T00:01:26.048Z,12.10
2017-12-16T00:03:55.307Z,12.60
2017-12-16T00:06:24.541Z,15.38
2017-12-16T00:08:54.577Z,14.38
2017-12-16T00:11:23.842Z,10.02
2017-12-16T00:13:53.097Z,6.93
2017-12-16T00:16:22.344Z,11.63
2017-12-16T00:18:51.627Z,8.70
2017-12-16T00:21:21.375Z,9.60
2017-12-16T00:23:51.398Z,14.20
2017-12-16T00:26:21.401Z,7.80
2017-12-16T00:28:51.427Z,9.10
2017-12-16T00:31:21.432Z,14.13
2017-12-16T00:33:51.568Z,9.38
2017-12-16T00:36:21.580Z,9.10
2017-12-16T00:38:51.604Z,8.30
2017-12-16T00:41:21.650Z,13.95
2017-12-16T00:43:50.953Z,9.93
2017-12-16T00:46:20.138Z,9.20
2017-12-16T00:48:49.409Z,7.40
2017-12-16T00:51:19.422Z,7.00
2017-12-16T00:53:49.426Z,7.68
2017-12-16T00:56:18.681Z,8.00
2017-12-16T00:58:47.947Z,9.85
2017-12-16T01:01:17.182Z,10.82
2017-12-16T01:03:46.440Z,8.95
2017-12-16T01:06:16.478Z,12.85
2017-12-16T01:08:45.721Z,10.35
2017-12-16T01:11:14.990Z,7.78
2017-12-16T01:13:44.245Z,12.43
2017-12-16T01:16:14.246Z,10.30
2017-12-16T01:18:43.494Z,10.00
2017-12-16T01:21:12.747Z,11.82
2017-12-16T01:23:42.010Z,11.57
2017-12-16T01:26:11.268Z,16.08
2017-12-16T01:28:41.295Z,10.77
2017-12-16T01:31:10.542Z,10.65
2017-12-16T01:33:57.593Z,19.25
2017-12-16T01:36:45.370Z,11.20
2017-12-16T01:39:14.625Z,12.57
2017-12-16T01:41:44.657Z,9.57
2017-12-16T01:44:14.667Z,12.32
2017-12-16T01:46:44.708Z,13.85
2017-12-16T01:49:13.963Z,14.57
2017-12-16T01:51:43.219Z,10.55
2017-12-16T01:54:12.492Z,10.40
2017-12-16T01:56:41.756Z,9.45
2017-12-16T01:59:11.014Z,21.95
2017-12-16T02:01:40.310Z,9.30
2017-12-16T02:04:09.559Z,16.12
2017-12-16T02:06:38.836Z,13.77
2017-12-16T02:09:08.051Z,9.90
2017-12-16T02:11:37.296Z,13.50
2017-12-16T02:14:06.573Z,10.00
2017-12-16T02:16:35.849Z,13.15
2017-12-16T02:19:05.095Z,9.00
2017-12-16T02:21:34.354Z,13.10
2017-12-16T02:24:04.424Z,13.02
2017-12-16T02:26:33.685Z,9.40
2017-12-16T02:29:02.945Z,7.87
2017-12-16T02:31:32.204Z,7.95
2017-12-16T02:34:01.558Z,10.45
2017-12-16T02:36:31.639Z,9.65
2017-12-16T02:39:00.901Z,12.68
2017-12-16T02:41:30.951Z,9.10
2017-12-16T02:44:00.210Z,9.15
2017-12-16T02:46:29.582Z,5.82
2017-12-16T02:48:58.843Z,7.62
2017-12-16T02:51:28.114Z,7.32
2017-12-16T02:53:57.374Z,7.30
2017-12-16T02:56:26.618Z,9.93
2017-12-16T02:58:56.651Z,6.22
2017-12-16T03:01:25.908Z,8.52
2017-12-16T03:03:55.155Z,9.75
2017-12-16T03:06:24.384Z,7.40
2017-12-16T03:08:53.630Z,14.95
2017-12-16T03:11:23.656Z,8.00
2017-12-16T03:13:53.679Z,5.80
2017-12-16T03:16:23.710Z,7.75
2017-12-16T03:18:52.960Z,7.30
2017-12-16T03:21:22.256Z,12.63
2017-12-16T03:23:51.495Z,7.75
2017-12-16T03:26:21.542Z,7.90
2017-12-16T03:28:50.802Z,9.15
2017-12-16T03:31:20.819Z,7.70
2017-12-16T03:33:50.851Z,8.85
2017-12-16T03:36:20.101Z,12.55
2017-12-16T03:38:50.303Z,9.20
2017-12-16T03:41:19.554Z,7.62
2017-12-16T03:43:49.566Z,7.50
2017-12-16T03:46:18.854Z,7.90
2017-12-16T03:48:48.101Z,8.15
2017-12-16T03:51:17.362Z,5.47
2017-12-16T03:53:47.392Z,10.43
2017-12-16T03:56:17.413Z,8.13
2017-12-16T03:58:47.421Z,5.90
2017-12-16T04:01:17.419Z,7.93
2017-12-16T04:03:47.235Z,8.38
2017-12-16T04:06:16.482Z,8.07
2017-12-16T04:08:45.742Z,6.20
2017-12-16T04:11:14.977Z,9.15
2017-12-16T04:13:44.240Z,8.18
2017-12-16T04:16:13.501Z,11.57
2017-12-16T04:18:42.755Z,11.93
2017-12-16T04:21:12.022Z,8.43
2017-12-16T04:23:41.277Z,11.05
2017-12-16T04:26:10.514Z,6.72
2017-12-16T04:28:39.764Z,7.43
2017-12-16T04:31:09.015Z,11.40
2017-12-16T04:33:38.250Z,7.20
2017-12-16T04:36:07.517Z,7.25
2017-12-16T04:38:36.747Z,12.60
2017-12-16T04:41:06.037Z,6.75
2017-12-16T04:43:35.292Z,7.70
2017-12-16T04:46:04.563Z,7.95
2017-12-16T04:48:33.823Z,9.43
2017-12-16T04:51:03.084Z,9.20
2017-12-16T04:53:32.328Z,12.10
2017-12-16T04:56:02.334Z,7.65
2017-12-16T04:58:31.610Z,7.68
2017-12-16T05:01:00.909Z,5.72
2017-12-16T05:03:30.182Z,8.52
2017-12-16T05:05:59.458Z,6.07
2017-12-16T05:08:28.725Z,13.90
2017-12-16T05:10:57.988Z,15.90
2017-12-16T05:13:27.241Z,10.82
2017-12-16T05:15:57.287Z,7.22
2017-12-16T05:18:26.502Z,8.75
2017-12-16T05:20:55.768Z,11.80
2017-12-16T05:23:25.034Z,7.25
2017-12-16T05:25:55.031Z,13.20
2017-12-16T05:28:24.284Z,6.65
2017-12-16T05:30:53.526Z,16.12
2017-12-16T05:33:22.797Z,14.35
2017-12-16T05:35:52.032Z,10.40
2017-12-16T05:38:21.292Z,11.27
2017-12-16T05:40:50.544Z,8.52
2017-12-16T05:43:19.797Z,12.57
2017-12-16T05:45:49.071Z,6.43
2017-12-16T05:48:19.090Z,11.02
2017-12-16T05:50:49.107Z,8.50
2017-12-16T05:53:19.114Z,10.68
2017-12-16T05:55:48.351Z,8.10
2017-12-16T05:58:17.826Z,10.10
2017-12-16T06:00:47.844Z,14.30
2017-12-16T06:03:17.881Z,16.58
2017-12-16T06:05:47.138Z,10.35
2017-12-16T06:08:16.387Z,10.00
2017-12-16T06:10:45.678Z,12.25
2017-12-16T06:13:14.935Z,11.27
2017-12-16T06:15:44.465Z,9.20
2017-12-16T06:18:14.476Z,8.65
2017-12-16T06:20:44.517Z,16.62
2017-12-16T06:23:13.781Z,12.93
2017-12-16T06:25:43.019Z,14.10
2017-12-16T06:28:12.291Z,9.35
2017-12-16T06:30:41.517Z,9.20
2017-12-16T06:33:10.777Z,8.73
2017-12-16T06:35:40.022Z,8.65
2017-12-16T06:38:09.254Z,9.15
2017-12-16T06:40:38.524Z,7.85
2017-12-16T06:43:07.818Z,10.02
2017-12-16T06:45:37.081Z,9.32
2017-12-16T06:48:07.099Z,8.82
2017-12-16T06:50:36.367Z,10.77
2017-12-16T06:53:06.385Z,10.48
2017-12-16T06:55:35.692Z,9.90
2017-12-16T06:58:04.894Z,10.10
2017-12-16T07:00:34.145Z,16.90
2017-12-16T07:03:03.429Z,8.82
2017-12-16T07:05:32.681Z,8.75
2017-12-16T07:08:01.927Z,10.55
2017-12-16T07:10:31.183Z,12.37
2017-12-16T07:13:00.424Z,11.02
2017-12-16T07:15:29.672Z,13.35
2017-12-16T07:17:58.910Z,7.97
2017-12-16T07:20:28.919Z,13.15
2017-12-16T07:22:58.955Z,10.55
2017-12-16T07:25:28.945Z,13.18
2017-12-16T07:27:58.213Z,12.82
2017-12-16T07:30:27.459Z,13.60
2017-12-16T07:32:57.491Z,11.25
2017-12-16T07:35:26.723Z,11.40
2017-12-16T07:37:56.018Z,13.93
2017-12-16T07:40:25.283Z,10.30
2017-12-16T07:42:54.522Z,9.18
2017-12-16T07:45:23.801Z,9.52
2017-12-16T07:47:53.045Z,10.48
2017-12-16T07:50:22.328Z,14.65
2017-12-16T07:52:51.708Z,12.13
2017-12-16T07:55:21.167Z,15.10
2017-12-16T07:57:51.219Z,15.88
2017-12-16T08:00:20.473Z,13.77
2017-12-16T08:02:50.513Z,14.38
2017-12-16T08:05:20.547Z,20.23
2017-12-16T08:07:49.805Z,18.12
2017-12-16T08:10:19.069Z,16.92
2017-12-16T08:12:48.330Z,20.85
2017-12-16T08:15:17.583Z,30.40
2017-12-16T08:17:46.856Z,12.30
2017-12-16T08:20:16.106Z,11.80
2017-12-16T08:22:46.140Z,13.52
2017-12-16T08:25:15.404Z,13.15
2017-12-16T08:27:44.671Z,12.40
2017-12-16T08:30:13.948Z,14.68
2017-12-16T08:32:44.205Z,18.77
2017-12-16T08:35:13.458Z,13.35
2017-12-16T08:37:43.484Z,12.43
2017-12-16T08:40:12.755Z,13.82
2017-12-16T08:42:41.990Z,12.55
2017-12-16T08:45:11.242Z,13.65
2017-12-16T08:47:40.511Z,16.87
2017-12-16T08:50:09.784Z,13.98
2017-12-16T08:52:39.029Z,11.35
2017-12-16T08:55:08.291Z,14.48
2017-12-16T08:57:37.590Z,11.57
2017-12-16T09:00:06.814Z,13.35
2017-12-16T09:02:36.065Z,10.95
2017-12-16T09:05:05.293Z,12.68
2017-12-16T09:07:34.544Z,10.43
2017-12-16T09:10:03.793Z,10.90
2017-12-16T09:12:33.069Z,11.38
2017-12-16T09:15:02.315Z,11.45
2017-12-16T09:17:31.575Z,12.57
2017-12-16T09:20:00.958Z,10.45
2017-12-16T09:22:30.974Z,14.18
2017-12-16T09:25:00.210Z,10.00
2017-12-16T09:27:29.475Z,11.65
2017-12-16T09:29:58.714Z,10.95
2017-12-16T09:32:27.985Z,11.52
2017-12-16T09:34:58.007Z,10.32
2017-12-16T09:37:28.012Z,14.25
2017-12-16T09:39:58.032Z,12.52
2017-12-16T09:42:28.064Z,14.32
2017-12-16T09:44:57.306Z,13.82
2017-12-16T09:47:26.552Z,15.65
2017-12-16T09:49:56.313Z,20.33
2017-12-16T09:52:26.537Z,20.88
2017-12-16T09:54:56.649Z,18.40
2017-12-16T09:57:26.690Z,19.55
2017-12-16T09:59:57.363Z,20.35
2017-12-16T10:02:27.567Z,27.10
2017-12-16T10:04:57.807Z,25.70
2017-12-16T10:07:27.599Z,19.27
2017-12-16T10:09:58.089Z,23.05
2017-12-16T10:12:29.777Z,22.15
2017-12-16T10:15:00.717Z,25.92
2017-12-16T10:17:31.985Z,25.75
2017-12-16T10:20:02.221Z,26.02
2017-12-16T10:22:32.443Z,30.15
2017-12-16T10:25:02.327Z,26.73
2017-12-16T10:27:31.787Z,30.55
2017-12-16T10:30:01.762Z,31.85
2017-12-16T10:32:32.320Z,29.40
2017-12-16T10:35:02.775Z,25.75
2017-12-16T10:37:32.883Z,32.20
2017-12-16T10:40:03.083Z,27.30
2017-12-16T10:42:32.423Z,31.00
2017-12-16T10:45:02.236Z,29.27
2017-12-16T10:47:32.380Z,28.00
2017-12-16T10:50:02.568Z,31.85
2017-12-16T10:52:32.413Z,29.08
2017-12-16T10:55:02.720Z,24.95
2017-12-16T10:57:32.702Z,31.37
2017-12-16T11:00:04.617Z,27.75
2017-12-16T11:02:35.730Z,31.65
2017-12-16T11:05:05.806Z,30.50
2017-12-16T11:07:35.957Z,32.20
2017-12-16T11:10:05.716Z,34.42
2017-12-16T11:12:35.689Z,30.30
2017-12-16T11:15:05.863Z,31.60
2017-12-16T11:17:35.844Z,28.77
2017-12-16T11:20:06.675Z,32.05
2017-12-16T11:22:36.826Z,33.20
2017-12-16T11:25:07.544Z,35.30
2017-12-16T11:27:38.524Z,32.47
2017-12-16T11:30:08.716Z,30.50
2017-12-16T11:32:38.904Z,33.08
2017-12-16T11:35:08.831Z,35.05
2017-12-16T11:37:38.295Z,34.30
2017-12-16T11:40:07.546Z,41.58
2017-12-16T11:42:37.592Z,47.35
2017-12-16T11:45:08.127Z,33.72
2017-12-16T11:47:38.365Z,33.47
2017-12-16T11:50:08.154Z,40.05
2017-12-16T11:52:38.377Z,32.80
2017-12-16T11:55:07.783Z,36.80
2017-12-16T11:57:37.028Z,30.37
2017-12-16T12:00:06.314Z,34.72
2017-12-16T12:02:35.582Z,30.25
2017-12-16T12:05:05.669Z,33.33
2017-12-16T12:07:35.695Z,29.98
2017-12-16T12:10:05.532Z,35.72
2017-12-16T12:12:34.808Z,24.77
2017-12-16T12:15:04.058Z,32.63
2017-12-16T12:17:33.320Z,30.08
2017-12-16T12:20:02.569Z,27.00
2017-12-16T12:22:31.833Z,22.98
2017-12-16T12:25:01.098Z,27.67
2017-12-16T12:27:31.136Z,20.50
2017-12-16T12:30:00.382Z,28.52
2017-12-16T12:32:30.400Z,24.10
2017-12-16T12:35:00.418Z,24.17
2017-12-16T12:37:29.839Z,21.77
2017-12-16T12:39:59.862Z,30.98
2017-12-16T12:42:29.898Z,27.92
2017-12-16T12:44:59.159Z,27.37
2017-12-16T12:47:28.395Z,23.05
2017-12-16T12:49:57.664Z,22.17
2017-12-16T12:52:26.925Z,19.62
2017-12-16T12:54:56.219Z,21.90
2017-12-16T12:57:25.470Z,23.08
2017-12-16T12:59:55.506Z,20.95
2017-12-16T13:02:24.774Z,25.73
2017-12-16T13:04:54.040Z,19.08
2017-12-16T13:07:23.309Z,24.42
2017-12-16T13:09:52.597Z,23.02
2017-12-16T13:12:22.628Z,23.92
2017-12-16T13:14:51.899Z,20.88
2017-12-16T13:17:22.086Z,21.35
2017-12-16T13:19:51.458Z,20.65
2017-12-16T13:22:20.736Z,18.37
2017-12-16T13:24:50.749Z,15.60
2017-12-16T13:27:20.769Z,16.55
2017-12-16T13:29:51.588Z,14.95
2017-12-16T13:32:20.984Z,17.42
2017-12-16T13:34:50.258Z,15.68
2017-12-16T13:37:19.533Z,15.02
2017-12-16T13:39:48.803Z,18.08
2017-12-16T13:42:18.834Z,12.30
2017-12-16T13:44:48.089Z,22.00
2017-12-16T13:47:17.349Z,19.98
2017-12-16T13:49:46.625Z,11.63
2017-12-16T13:52:15.923Z,13.10
2017-12-16T13:54:45.152Z,16.40
2017-12-16T13:57:14.414Z,17.55
2017-12-16T13:59:44.433Z,16.55
2017-12-16T14:02:14.481Z,17.15
2017-12-16T14:04:43.769Z,18.52
2017-12-16T14:07:13.056Z,17.52
2017-12-16T14:09:43.085Z,21.98
2017-12-16T14:12:12.353Z,18.62
2017-12-16T14:14:42.408Z,14.68
2017-12-16T14:17:11.682Z,22.70
2017-12-16T14:19:41.778Z,16.37
2017-12-16T14:22:11.045Z,16.65
2017-12-16T14:24:40.294Z,16.20
2017-12-16T14:27:10.308Z,17.58
2017-12-16T14:29:40.343Z,16.02
2017-12-16T14:32:11.461Z,21.73
2017-12-16T14:34:42.480Z,23.83
2017-12-16T14:37:12.534Z,20.00
2017-12-16T14:39:42.572Z,18.27
2017-12-16T14:42:13.644Z,16.75
2017-12-16T14:44:44.509Z,18.62
2017-12-16T14:47:14.378Z,20.08
2017-12-16T14:49:44.610Z,16.45
2017-12-16T14:52:14.102Z,15.20
2017-12-16T14:54:43.349Z,16.23
2017-12-16T14:57:12.604Z,18.40
2017-12-16T14:59:41.862Z,19.50
2017-12-16T15:02:11.954Z,15.68
2017-12-16T15:04:41.232Z,18.67
2017-12-16T15:07:10.469Z,16.37
2017-12-16T15:09:39.743Z,15.13
2017-12-16T15:12:08.978Z,13.48
2017-12-16T15:14:39.016Z,15.48
2017-12-16T15:17:08.275Z,18.52
2017-12-16T15:19:37.534Z,15.13
2017-12-16T15:22:06.818Z,16.98
2017-12-16T15:24:36.064Z,10.95
2017-12-16T15:27:05.335Z,16.10
2017-12-16T15:29:34.604Z,17.75
2017-12-16T15:32:04.628Z,17.48
2017-12-16T15:34:33.893Z,14.40
2017-12-16T15:37:03.146Z,15.95
2017-12-16T15:39:32.377Z,18.00
2017-12-16T15:42:01.654Z,21.17
2017-12-16T15:44:30.926Z,14.10
2017-12-16T15:47:00.213Z,13.55
2017-12-16T15:49:29.427Z,21.00
2017-12-16T15:51:58.684Z,15.60
2017-12-16T15:54:27.951Z,19.48
2017-12-16T15:56:57.263Z,13.62
2017-12-16T15:59:26.490Z,16.35
2017-12-16T16:01:55.810Z,19.40
2017-12-16T16:04:25.030Z,19.55
2017-12-16T16:06:54.275Z,20.90
2017-12-16T16:09:23.551Z,17.80
2017-12-16T16:11:52.776Z,19.52
2017-12-16T16:14:22.026Z,22.27
2017-12-16T16:16:51.288Z,21.12
2017-12-16T16:19:21.327Z,19.67
2017-12-16T16:21:51.346Z,19.37
2017-12-16T16:24:20.604Z,21.33
2017-12-16T16:26:49.865Z,21.95
2017-12-16T16:29:19.118Z,26.02
2017-12-16T16:31:48.373Z,30.20
2017-12-16T16:34:17.625Z,23.50
2017-12-16T16:36:47.671Z,26.35
2017-12-16T16:39:16.936Z,31.80
2017-12-16T16:41:46.964Z,25.85
2017-12-16T16:44:16.981Z,22.45
2017-12-16T16:46:47.011Z,25.67
2017-12-16T16:49:17.027Z,21.55
2017-12-16T16:51:46.277Z,25.67
2017-12-16T16:54:15.547Z,25.98
2017-12-16T16:56:44.797Z,24.58
2017-12-16T16:59:14.039Z,25.62
2017-12-16T17:01:43.320Z,22.45
2017-12-16T17:04:13.330Z,24.98
2017-12-16T17:06:43.344Z,20.40
2017-12-16T17:09:12.595Z,20.73
2017-12-16T17:11:42.669Z,23.60
2017-12-16T17:14:11.957Z,20.50
2017-12-16T17:16:41.993Z,21.80
2017-12-16T17:19:11.274Z,25.05
2017-12-16T17:21:41.288Z,23.87
2017-12-16T17:24:10.558Z,23.48
2017-12-16T17:26:39.813Z,20.85
2017-12-16T17:29:09.077Z,19.50
2017-12-16T17:31:38.327Z,21.08
2017-12-16T17:34:07.580Z,18.40
2017-12-16T17:36:36.852Z,22.20
2017-12-16T17:39:06.107Z,20.62
2017-12-16T17:41:35.345Z,21.67
2017-12-16T17:44:04.618Z,24.08
2017-12-16T17:46:34.573Z,22.55
2017-12-16T17:49:04.033Z,27.40
2017-12-16T17:51:33.322Z,21.17
2017-12-16T17:54:02.578Z,18.58
2017-12-16T17:56:31.852Z,21.42
2017-12-16T17:59:01.091Z,21.77
2017-12-16T18:01:30.403Z,20.80
2017-12-16T18:04:00.420Z,19.92
2017-12-16T18:06:29.690Z,19.10
2017-12-16T18:08:58.965Z,24.58
2017-12-16T18:11:28.242Z,23.83
2017-12-16T18:13:57.499Z,19.85
2017-12-16T18:16:26.775Z,18.15
2017-12-16T18:18:56.005Z,19.35
2017-12-16T18:21:25.282Z,20.62
2017-12-16T18:23:54.532Z,17.42
2017-12-16T18:26:23.838Z,20.23
2017-12-16T18:28:53.112Z,24.45
2017-12-16T18:31:22.347Z,19.23
2017-12-16T18:33:51.616Z,21.37
2017-12-16T18:36:21.645Z,19.15
2017-12-16T18:38:51.765Z,24.02
2017-12-16T18:41:21.022Z,26.70
2017-12-16T18:43:50.293Z,24.45
2017-12-16T18:46:19.594Z,19.48
2017-12-16T18:48:48.830Z,19.25
2017-12-16T18:51:18.102Z,16.77
2017-12-16T18:53:47.366Z,19.20
2017-12-16T18:56:16.629Z,22.27
2017-12-16T18:58:45.897Z,18.12
2017-12-16T19:01:15.157Z,18.92
2017-12-16T19:03:44.443Z,16.70
2017-12-16T19:06:14.460Z,23.33
2017-12-16T19:08:44.497Z,21.30
2017-12-16T19:11:13.801Z,24.52
2017-12-16T19:13:43.012Z,19.00
2017-12-16T19:16:12.288Z,19.80
2017-12-16T19:18:42.320Z,19.48
2017-12-16T19:21:11.582Z,18.95
2017-12-16T19:23:40.851Z,22.13
2017-12-16T19:26:10.112Z,21.25
2017-12-16T19:28:39.378Z,21.52
2017-12-16T19:31:08.642Z,20.88
2017-12-16T19:33:37.926Z,27.33
2017-12-16T19:36:07.168Z,20.00
2017-12-16T19:38:36.449Z,23.48
2017-12-16T19:41:05.714Z,23.55
2017-12-16T19:43:34.963Z,18.37
2017-12-16T19:46:04.224Z,21.30
2017-12-16T19:48:33.494Z,22.40
2017-12-16T19:51:03.548Z,21.00
2017-12-16T19:53:32.819Z,19.92
2017-12-16T19:56:02.082Z,20.00
2017-12-16T19:58:31.363Z,18.37
2017-12-16T20:01:00.608Z,21.33
2017-12-16T20:03:29.917Z,17.55
2017-12-16T20:05:59.937Z,20.83
2017-12-16T20:08:29.209Z,19.85
2017-12-16T20:10:58.469Z,18.85
2017-12-16T20:13:27.734Z,15.18
2017-12-16T20:15:57.007Z,17.85
2017-12-16T20:18:26.252Z,18.35
2017-12-16T20:20:55.530Z,20.00
2017-12-16T20:23:24.776Z,20.85
2017-12-16T20:25:54.024Z,18.60
2017-12-16T20:28:23.285Z,20.20
2017-12-16T20:30:52.554Z,25.35
2017-12-16T20:33:21.824Z,30.70
2017-12-16T20:35:51.085Z,18.52
2017-12-16T20:38:20.342Z,17.62
2017-12-16T20:40:49.642Z,19.77
2017-12-16T20:43:18.974Z,18.37
2017-12-16T20:45:48.235Z,19.90
2017-12-16T20:48:17.496Z,18.80
2017-12-16T20:50:46.782Z,20.75
2017-12-16T20:53:16.046Z,22.75
2017-12-16T20:55:45.305Z,16.30
2017-12-16T20:58:15.324Z,20.30
2017-12-16T21:00:45.345Z,17.75
2017-12-16T21:03:14.604Z,19.30
2017-12-16T21:05:43.849Z,19.60
2017-12-16T21:08:13.873Z,24.55
2017-12-16T21:10:43.127Z,19.00
2017-12-16T21:13:12.374Z,18.12
2017-12-16T21:15:41.652Z,16.30
2017-12-16T21:18:11.678Z,18.27
2017-12-16T21:20:41.700Z,16.00
2017-12-16T21:23:11.739Z,17.12
2017-12-16T21:25:40.993Z,18.67
2017-12-16T21:28:11.127Z,17.67
2017-12-16T21:30:41.145Z,20.12
2017-12-16T21:33:11.174Z,20.48
2017-12-16T21:35:40.479Z,15.70
2017-12-16T21:38:09.748Z,16.95
2017-12-16T21:40:39.009Z,21.60
2017-12-16T21:43:08.264Z,23.60
2017-12-16T21:45:38.265Z,14.57
2017-12-16T21:48:07.549Z,18.17
2017-12-16T21:50:36.803Z,12.90
2017-12-16T21:53:06.076Z,19.37
2017-12-16T21:55:35.353Z,18.87
2017-12-16T21:58:04.595Z,18.33
2017-12-16T22:00:33.849Z,20.73
2017-12-16T22:03:03.082Z,20.62
2017-12-16T22:05:32.350Z,17.30
2017-12-16T22:08:01.589Z,15.18
2017-12-16T22:10:30.855Z,15.25
2017-12-16T22:13:00.114Z,14.23
2017-12-16T22:15:29.372Z,17.55
2017-12-16T22:17:59.410Z,20.77
2017-12-16T22:20:28.667Z,20.90
2017-12-16T22:22:57.924Z,18.48
2017-12-16T22:25:27.188Z,18.70
2017-12-16T22:27:56.421Z,16.80
2017-12-16T22:30:25.689Z,17.90
2017-12-16T22:32:54.947Z,16.85
2017-12-16T22:35:24.194Z,14.15
2017-12-16T22:37:53.464Z,22.13
2017-12-16T22:40:22.714Z,16.52
2017-12-16T22:42:51.967Z,15.25
2017-12-16T22:45:21.236Z,18.12
2017-12-16T22:47:50.485Z,13.10
2017-12-16T22:50:20.512Z,11.95
2017-12-16T22:52:49.783Z,14.43
2017-12-16T22:55:19.022Z,12.73
2017-12-16T22:57:48.278Z,11.48
2017-12-16T23:00:17.558Z,17.85
2017-12-16T23:02:46.799Z,13.35
2017-12-16T23:05:16.036Z,13.45
2017-12-16T23:07:45.300Z,17.52
2017-12-16T23:10:14.551Z,14.93
2017-12-16T23:12:43.806Z,14.45
2017-12-16T23:15:13.055Z,14.13
2017-12-16T23:17:42.304Z,14.15
2017-12-16T23:20:11.552Z,14.02
2017-12-16T23:22:40.806Z,13.55
2017-12-16T23:25:10.064Z,13.00
2017-12-16T23:27:39.343Z,13.50
2017-12-16T23:30:09.317Z,16.25
2017-12-16T23:32:38.591Z,13.70
2017-12-16T23:35:08.624Z,15.88
2017-12-16T23:37:37.866Z,14.52
2017-12-16T23:40:07.115Z,14.30
2017-12-16T23:42:37.150Z,12.82
2017-12-16T23:45:06.371Z,9.35
2017-12-16T23:47:35.619Z,12.43
2017-12-16T23:50:05.615Z,12.95
2017-12-16T23:52:34.861Z,12.05
2017-12-16T23:55:04.249Z,12.40
2017-12-16T23:57:33.459Z,13.32
